sensor_id;sensor_type;location;lat;lon;timestamp;P1;durP1;ratioP1;P2;durP2;ratioP2
52468;SDS011;38381;53.688;10.776;2023-05-07T00:04:31;10.43;;;9.38;;
52468;SDS011;38381;53.688;10.776;2023-05-07T00:09:36;9.93;;;8.93;;
52468;SDS011;38381;53.688;10.776;2023-05-07T00:14:37;13.13;;;8.48;;
52468;SDS011;38381;53.688;10.776;2023-05-07T00:19:37;11.60;;;10.13;;
52468;SDS011;38381;53.688;10.776;2023-05-07T00:24:38;10.77;;;9.48;;
52468;SDS011;38381;53.688;10.776;2023-05-07T00:29:38;10.38;;;9.32;;
52468;SDS011;38381;53.688;10.776;2023-05-07T00:34:39;11.38;;;10.27;;
52468;SDS011;38381;53.688;10.776;2023-05-07T00:39:39;12.50;;;10.63;;
52468;SDS011;38381;53.688;10.776;2023-05-07T00:44:40;11.13;;;9.90;;
52468;SDS011;38381;53.688;10.776;2023-05-07T00:49:44;10.60;;;9.48;;
52468;SDS011;38381;53.688;10.776;2023-05-07T00:54:45;11.02;;;9.88;;
52468;SDS011;38381;53.688;10.776;2023-05-07T00:59:45;12.25;;;11.02;;
52468;SDS011;38381;53.688;10.776;2023-05-07T01:04:46;14.90;;;13.25;;
52468;SDS011;38381;53.688;10.776;2023-05-07T01:09:46;13.00;;;11.80;;
52468;SDS011;38381;53.688;10.776;2023-05-07T01:14:47;12.77;;;11.43;;
52468;SDS011;38381;53.688;10.776;2023-05-07T01:19:49;11.50;;;10.30;;
52468;SDS011;38381;53.688;10.776;2023-05-07T01:24:50;11.77;;;10.13;;
52468;SDS011;38381;53.688;10.776;2023-05-07T01:29:51;11.57;;;10.35;;
52468;SDS011;38381;53.688;10.776;2023-05-07T01:34:51;11.75;;;10.55;;
52468;SDS011;38381;53.688;10.776;2023-05-07T01:44:54;9.00;;;7.90;;
52468;SDS011;38381;53.688;10.776;2023-05-07T01:49:55;9.20;;;8.23;;
52468;SDS011;38381;53.688;10.776;2023-05-07T01:54:56;9.23;;;8.25;;
52468;SDS011;38381;53.688;10.776;2023-05-07T01:59:56;8.27;;;7.13;;
52468;SDS011;38381;53.688;10.776;2023-05-07T02:04:56;9.47;;;7.47;;
52468;SDS011;38381;53.688;10.776;2023-05-07T02:09:57;8.25;;;7.43;;
52468;SDS011;38381;53.688;10.776;2023-05-07T02:14:57;8.13;;;7.13;;
52468;SDS011;38381;53.688;10.776;2023-05-07T02:19:58;8.77;;;6.97;;
52468;SDS011;38381;53.688;10.776;2023-05-07T02:24:58;8.98;;;7.15;;
52468;SDS011;38381;53.688;10.776;2023-05-07T02:29:59;6.90;;;6.20;;
52468;SDS011;38381;53.688;10.776;2023-05-07T02:34:59;5.68;;;5.18;;
52468;SDS011;38381;53.688;10.776;2023-05-07T02:40:00;6.78;;;5.80;;
52468;SDS011;38381;53.688;10.776;2023-05-07T02:45:00;6.50;;;5.78;;
52468;SDS011;38381;53.688;10.776;2023-05-07T02:50:01;8.02;;;6.55;;
52468;SDS011;38381;53.688;10.776;2023-05-07T02:55:01;8.45;;;7.22;;
52468;SDS011;38381;53.688;10.776;2023-05-07T03:00:15;8.48;;;7.30;;
52468;SDS011;38381;53.688;10.776;2023-05-07T03:05:17;9.13;;;6.82;;
52468;SDS011;38381;53.688;10.776;2023-05-07T03:10:17;8.45;;;7.53;;
52468;SDS011;38381;53.688;10.776;2023-05-07T03:15:18;6.90;;;6.20;;
52468;SDS011;38381;53.688;10.776;2023-05-07T03:20:19;7.10;;;6.45;;
52468;SDS011;38381;53.688;10.776;2023-05-07T03:25:19;9.85;;;7.57;;
52468;SDS011;38381;53.688;10.776;2023-05-07T03:30:20;10.02;;;7.65;;
52468;SDS011;38381;53.688;10.776;2023-05-07T03:35:20;7.75;;;6.97;;
52468;SDS011;38381;53.688;10.776;2023-05-07T03:40:21;6.97;;;6.25;;
52468;SDS011;38381;53.688;10.776;2023-05-07T03:45:21;7.35;;;6.47;;
52468;SDS011;38381;53.688;10.776;2023-05-07T03:50:22;8.57;;;7.45;;
52468;SDS011;38381;53.688;10.776;2023-05-07T03:55:22;8.10;;;7.30;;
52468;SDS011;38381;53.688;10.776;2023-05-07T04:00:22;7.78;;;7.10;;
52468;SDS011;38381;53.688;10.776;2023-05-07T04:05:23;8.43;;;7.00;;
52468;SDS011;38381;53.688;10.776;2023-05-07T04:10:24;8.13;;;7.25;;
52468;SDS011;38381;53.688;10.776;2023-05-07T04:15:24;8.57;;;7.57;;
52468;SDS011;38381;53.688;10.776;2023-05-07T04:20:25;7.05;;;6.45;;
52468;SDS011;38381;53.688;10.776;2023-05-07T04:25:25;12.93;;;6.88;;
52468;SDS011;38381;53.688;10.776;2023-05-07T04:30:26;7.88;;;6.57;;
52468;SDS011;38381;53.688;10.776;2023-05-07T04:35:27;6.78;;;6.15;;
52468;SDS011;38381;53.688;10.776;2023-05-07T04:40:27;7.22;;;6.50;;
52468;SDS011;38381;53.688;10.776;2023-05-07T04:45:27;6.88;;;6.25;;
52468;SDS011;38381;53.688;10.776;2023-05-07T04:50:28;7.20;;;6.50;;
52468;SDS011;38381;53.688;10.776;2023-05-07T04:55:28;7.03;;;6.18;;
52468;SDS011;38381;53.688;10.776;2023-05-07T05:00:29;9.10;;;6.80;;
52468;SDS011;38381;53.688;10.776;2023-05-07T05:05:29;7.90;;;5.50;;
52468;SDS011;38381;53.688;10.776;2023-05-07T05:10:30;7.20;;;5.72;;
52468;SDS011;38381;53.688;10.776;2023-05-07T05:15:30;6.97;;;6.23;;
52468;SDS011;38381;53.688;10.776;2023-05-07T05:20:31;7.47;;;6.28;;
52468;SDS011;38381;53.688;10.776;2023-05-07T05:25:31;7.57;;;6.70;;
52468;SDS011;38381;53.688;10.776;2023-05-07T05:30:31;7.07;;;6.35;;
52468;SDS011;38381;53.688;10.776;2023-05-07T05:35:32;6.57;;;5.95;;
52468;SDS011;38381;53.688;10.776;2023-05-07T05:40:32;6.57;;;5.88;;
52468;SDS011;38381;53.688;10.776;2023-05-07T05:45:33;7.22;;;5.82;;
52468;SDS011;38381;53.688;10.776;2023-05-07T05:50:37;6.45;;;5.45;;
52468;SDS011;38381;53.688;10.776;2023-05-07T05:55:37;7.90;;;6.03;;
52468;SDS011;38381;53.688;10.776;2023-05-07T06:00:37;6.85;;;5.82;;
52468;SDS011;38381;53.688;10.776;2023-05-07T06:05:38;5.50;;;5.00;;
52468;SDS011;38381;53.688;10.776;2023-05-07T06:10:38;6.32;;;5.72;;
52468;SDS011;38381;53.688;10.776;2023-05-07T06:15:39;6.35;;;5.07;;
52468;SDS011;38381;53.688;10.776;2023-05-07T06:20:40;6.27;;;5.53;;
52468;SDS011;38381;53.688;10.776;2023-05-07T06:25:40;6.45;;;5.60;;
52468;SDS011;38381;53.688;10.776;2023-05-07T06:30:41;5.80;;;5.17;;
52468;SDS011;38381;53.688;10.776;2023-05-07T06:35:41;5.65;;;5.15;;
52468;SDS011;38381;53.688;10.776;2023-05-07T06:40:41;6.22;;;5.63;;
52468;SDS011;38381;53.688;10.776;2023-05-07T06:45:42;7.22;;;5.40;;
52468;SDS011;38381;53.688;10.776;2023-05-07T06:50:42;5.28;;;4.78;;
52468;SDS011;38381;53.688;10.776;2023-05-07T06:55:43;7.30;;;6.65;;
52468;SDS011;38381;53.688;10.776;2023-05-07T07:00:43;5.28;;;4.80;;
52468;SDS011;38381;53.688;10.776;2023-05-07T07:05:44;6.65;;;5.85;;
52468;SDS011;38381;53.688;10.776;2023-05-07T07:10:44;5.97;;;5.38;;
52468;SDS011;38381;53.688;10.776;2023-05-07T07:15:45;11.95;;;6.25;;
52468;SDS011;38381;53.688;10.776;2023-05-07T07:20:45;6.00;;;5.50;;
52468;SDS011;38381;53.688;10.776;2023-05-07T07:25:46;6.35;;;5.75;;
52468;SDS011;38381;53.688;10.776;2023-05-07T07:30:47;6.78;;;6.10;;
52468;SDS011;38381;53.688;10.776;2023-05-07T07:35:47;7.43;;;5.97;;
52468;SDS011;38381;53.688;10.776;2023-05-07T07:40:47;5.82;;;5.25;;
52468;SDS011;38381;53.688;10.776;2023-05-07T07:45:48;6.10;;;4.75;;
52468;SDS011;38381;53.688;10.776;2023-05-07T07:50:49;7.07;;;5.20;;
52468;SDS011;38381;53.688;10.776;2023-05-07T07:55:51;6.15;;;5.32;;
52468;SDS011;38381;53.688;10.776;2023-05-07T08:00:51;5.50;;;5.00;;
52468;SDS011;38381;53.688;10.776;2023-05-07T08:05:51;5.20;;;4.70;;
52468;SDS011;38381;53.688;10.776;2023-05-07T08:10:52;5.22;;;4.75;;
52468;SDS011;38381;53.688;10.776;2023-05-07T08:15:52;5.40;;;4.90;;
52468;SDS011;38381;53.688;10.776;2023-05-07T08:20:53;5.43;;;4.70;;
52468;SDS011;38381;53.688;10.776;2023-05-07T08:25:53;6.18;;;5.57;;
52468;SDS011;38381;53.688;10.776;2023-05-07T08:30:53;6.13;;;5.53;;
52468;SDS011;38381;53.688;10.776;2023-05-07T08:35:54;5.65;;;5.13;;
52468;SDS011;38381;53.688;10.776;2023-05-07T08:40:54;5.97;;;5.25;;
52468;SDS011;38381;53.688;10.776;2023-05-07T08:45:55;5.70;;;5.03;;
52468;SDS011;38381;53.688;10.776;2023-05-07T08:51:00;6.55;;;4.45;;
52468;SDS011;38381;53.688;10.776;2023-05-07T08:56:00;5.05;;;3.83;;
52468;SDS011;38381;53.688;10.776;2023-05-07T09:01:03;5.20;;;4.80;;
52468;SDS011;38381;53.688;10.776;2023-05-07T09:06:07;4.45;;;4.05;;
52468;SDS011;38381;53.688;10.776;2023-05-07T09:11:08;4.97;;;4.47;;
52468;SDS011;38381;53.688;10.776;2023-05-07T09:16:10;4.83;;;4.33;;
52468;SDS011;38381;53.688;10.776;2023-05-07T09:21:15;4.35;;;3.95;;
52468;SDS011;38381;53.688;10.776;2023-05-07T09:26:16;4.72;;;4.18;;
52468;SDS011;38381;53.688;10.776;2023-05-07T09:31:17;4.10;;;3.70;;
52468;SDS011;38381;53.688;10.776;2023-05-07T09:36:18;4.15;;;3.20;;
52468;SDS011;38381;53.688;10.776;2023-05-07T09:41:18;8.68;;;3.72;;
52468;SDS011;38381;53.688;10.776;2023-05-07T09:46:19;3.40;;;2.95;;
52468;SDS011;38381;53.688;10.776;2023-05-07T09:51:37;3.63;;;3.15;;
52468;SDS011;38381;53.688;10.776;2023-05-07T09:56:42;3.40;;;3.00;;
52468;SDS011;38381;53.688;10.776;2023-05-07T10:01:43;3.25;;;2.90;;
52468;SDS011;38381;53.688;10.776;2023-05-07T10:06:44;4.53;;;3.45;;
52468;SDS011;38381;53.688;10.776;2023-05-07T10:11:46;3.78;;;3.10;;
52468;SDS011;38381;53.688;10.776;2023-05-07T10:16:49;5.50;;;2.80;;
52468;SDS011;38381;53.688;10.776;2023-05-07T10:21:59;3.10;;;2.80;;
52468;SDS011;38381;53.688;10.776;2023-05-07T10:27:05;3.88;;;2.97;;
52468;SDS011;38381;53.688;10.776;2023-05-07T10:37:16;3.65;;;2.60;;
52468;SDS011;38381;53.688;10.776;2023-05-07T10:42:17;3.10;;;2.60;;
52468;SDS011;38381;53.688;10.776;2023-05-07T10:47:18;3.30;;;3.00;;
52468;SDS011;38381;53.688;10.776;2023-05-07T10:52:19;3.03;;;2.60;;
52468;SDS011;38381;53.688;10.776;2023-05-07T10:57:32;2.78;;;2.30;;
52468;SDS011;38381;53.688;10.776;2023-05-07T11:03:10;3.60;;;2.40;;
52468;SDS011;38381;53.688;10.776;2023-05-07T11:08:05;5.90;;;2.70;;
52468;SDS011;38381;53.688;10.776;2023-05-07T11:13:06;3.10;;;2.20;;
52468;SDS011;38381;53.688;10.776;2023-05-07T11:18:06;2.20;;;1.90;;
52468;SDS011;38381;53.688;10.776;2023-05-07T11:23:07;2.50;;;2.00;;
52468;SDS011;38381;53.688;10.776;2023-05-07T11:28:07;3.70;;;2.33;;
52468;SDS011;38381;53.688;10.776;2023-05-07T11:33:11;2.13;;;1.83;;
52468;SDS011;38381;53.688;10.776;2023-05-07T11:38:12;2.92;;;2.25;;
52468;SDS011;38381;53.688;10.776;2023-05-07T11:43:13;5.25;;;2.35;;
52468;SDS011;38381;53.688;10.776;2023-05-07T11:48:14;3.20;;;1.80;;
52468;SDS011;38381;53.688;10.776;2023-05-07T11:53:15;2.30;;;2.07;;
52468;SDS011;38381;53.688;10.776;2023-05-07T11:58:20;2.57;;;2.20;;
52468;SDS011;38381;53.688;10.776;2023-05-07T12:03:22;2.70;;;1.90;;
52468;SDS011;38381;53.688;10.776;2023-05-07T12:08:22;2.42;;;2.15;;
52468;SDS011;38381;53.688;10.776;2023-05-07T12:13:24;2.80;;;2.25;;
52468;SDS011;38381;53.688;10.776;2023-05-07T12:18:25;2.45;;;2.22;;
52468;SDS011;38381;53.688;10.776;2023-05-07T12:23:25;2.47;;;2.17;;
52468;SDS011;38381;53.688;10.776;2023-05-07T12:28:26;2.50;;;2.10;;
52468;SDS011;38381;53.688;10.776;2023-05-07T12:33:26;2.35;;;1.70;;
52468;SDS011;38381;53.688;10.776;2023-05-07T12:38:32;2.30;;;1.90;;
52468;SDS011;38381;53.688;10.776;2023-05-07T12:43:35;3.42;;;1.58;;
52468;SDS011;38381;53.688;10.776;2023-05-07T12:48:37;2.70;;;1.80;;
52468;SDS011;38381;53.688;10.776;2023-05-07T12:58:42;4.32;;;2.08;;
52468;SDS011;38381;53.688;10.776;2023-05-07T13:03:47;2.20;;;2.00;;
52468;SDS011;38381;53.688;10.776;2023-05-07T13:08:49;2.30;;;1.70;;
52468;SDS011;38381;53.688;10.776;2023-05-07T13:13:49;2.95;;;1.90;;
52468;SDS011;38381;53.688;10.776;2023-05-07T13:18:49;2.60;;;2.40;;
52468;SDS011;38381;53.688;10.776;2023-05-07T13:23:50;2.47;;;1.75;;
52468;SDS011;38381;53.688;10.776;2023-05-07T13:28:54;6.17;;;2.37;;
52468;SDS011;38381;53.688;10.776;2023-05-07T13:33:55;2.20;;;2.00;;
52468;SDS011;38381;53.688;10.776;2023-05-07T13:38:56;2.80;;;2.30;;
52468;SDS011;38381;53.688;10.776;2023-05-07T13:43:58;2.40;;;2.17;;
52468;SDS011;38381;53.688;10.776;2023-05-07T13:48:58;2.00;;;1.70;;
52468;SDS011;38381;53.688;10.776;2023-05-07T13:53:59;2.17;;;1.65;;
52468;SDS011;38381;53.688;10.776;2023-05-07T13:58:59;3.03;;;2.00;;
52468;SDS011;38381;53.688;10.776;2023-05-07T14:04:00;2.47;;;1.90;;
52468;SDS011;38381;53.688;10.776;2023-05-07T14:09:00;2.38;;;2.17;;
52468;SDS011;38381;53.688;10.776;2023-05-07T14:14:01;2.47;;;2.17;;
52468;SDS011;38381;53.688;10.776;2023-05-07T14:19:01;3.37;;;2.50;;
52468;SDS011;38381;53.688;10.776;2023-05-07T14:24:01;2.47;;;2.20;;
52468;SDS011;38381;53.688;10.776;2023-05-07T14:29:02;2.42;;;2.00;;
52468;SDS011;38381;53.688;10.776;2023-05-07T14:34:03;2.83;;;2.30;;
52468;SDS011;38381;53.688;10.776;2023-05-07T14:39:04;2.63;;;2.17;;
52468;SDS011;38381;53.688;10.776;2023-05-07T14:44:04;4.40;;;2.30;;
52468;SDS011;38381;53.688;10.776;2023-05-07T14:49:05;2.40;;;1.90;;
52468;SDS011;38381;53.688;10.776;2023-05-07T14:54:06;3.77;;;2.17;;
52468;SDS011;38381;53.688;10.776;2023-05-07T14:59:07;3.63;;;1.90;;
52468;SDS011;38381;53.688;10.776;2023-05-07T15:04:08;2.55;;;2.00;;
52468;SDS011;38381;53.688;10.776;2023-05-07T15:09:08;3.13;;;1.98;;
52468;SDS011;38381;53.688;10.776;2023-05-07T15:14:09;2.25;;;1.85;;
52468;SDS011;38381;53.688;10.776;2023-05-07T15:19:09;2.47;;;2.10;;
52468;SDS011;38381;53.688;10.776;2023-05-07T15:24:10;2.33;;;1.85;;
52468;SDS011;38381;53.688;10.776;2023-05-07T15:29:10;3.35;;;1.85;;
52468;SDS011;38381;53.688;10.776;2023-05-07T15:34:11;2.45;;;2.20;;
52468;SDS011;38381;53.688;10.776;2023-05-07T15:39:11;3.20;;;2.50;;
52468;SDS011;38381;53.688;10.776;2023-05-07T15:44:12;2.17;;;1.80;;
52468;SDS011;38381;53.688;10.776;2023-05-07T15:49:13;2.17;;;1.60;;
52468;SDS011;38381;53.688;10.776;2023-05-07T15:54:13;2.60;;;2.05;;
52468;SDS011;38381;53.688;10.776;2023-05-07T15:59:15;2.87;;;2.10;;
52468;SDS011;38381;53.688;10.776;2023-05-07T16:09:16;2.95;;;1.95;;
52468;SDS011;38381;53.688;10.776;2023-05-07T16:14:17;3.40;;;1.98;;
52468;SDS011;38381;53.688;10.776;2023-05-07T16:19:17;2.60;;;1.80;;
52468;SDS011;38381;53.688;10.776;2023-05-07T16:24:18;1.75;;;1.58;;
52468;SDS011;38381;53.688;10.776;2023-05-07T16:29:18;2.30;;;1.67;;
52468;SDS011;38381;53.688;10.776;2023-05-07T16:39:22;4.18;;;1.80;;
52468;SDS011;38381;53.688;10.776;2023-05-07T16:44:23;2.80;;;2.03;;
52468;SDS011;38381;53.688;10.776;2023-05-07T16:49:23;2.20;;;1.88;;
52468;SDS011;38381;53.688;10.776;2023-05-07T16:54:24;5.35;;;1.88;;
52468;SDS011;38381;53.688;10.776;2023-05-07T16:59:24;2.25;;;1.60;;
52468;SDS011;38381;53.688;10.776;2023-05-07T17:04:25;2.67;;;1.55;;
52468;SDS011;38381;53.688;10.776;2023-05-07T17:09:25;2.05;;;1.85;;
52468;SDS011;38381;53.688;10.776;2023-05-07T17:14:26;2.70;;;1.80;;
52468;SDS011;38381;53.688;10.776;2023-05-07T17:19:26;2.42;;;1.70;;
52468;SDS011;38381;53.688;10.776;2023-05-07T17:24:27;3.53;;;2.28;;
52468;SDS011;38381;53.688;10.776;2023-05-07T17:29:28;2.60;;;1.73;;
52468;SDS011;38381;53.688;10.776;2023-05-07T17:34:29;5.07;;;1.67;;
52468;SDS011;38381;53.688;10.776;2023-05-07T17:39:31;2.67;;;1.90;;
52468;SDS011;38381;53.688;10.776;2023-05-07T17:44:32;2.17;;;1.70;;
52468;SDS011;38381;53.688;10.776;2023-05-07T17:49:33;3.00;;;1.70;;
52468;SDS011;38381;53.688;10.776;2023-05-07T17:54:34;1.73;;;1.50;;
52468;SDS011;38381;53.688;10.776;2023-05-07T17:59:34;4.28;;;2.10;;
52468;SDS011;38381;53.688;10.776;2023-05-07T18:04:35;1.92;;;1.40;;
52468;SDS011;38381;53.688;10.776;2023-05-07T18:09:35;2.33;;;1.90;;
52468;SDS011;38381;53.688;10.776;2023-05-07T18:14:36;1.83;;;1.70;;
52468;SDS011;38381;53.688;10.776;2023-05-07T18:19:36;4.78;;;1.65;;
52468;SDS011;38381;53.688;10.776;2023-05-07T18:24:36;3.28;;;1.80;;
52468;SDS011;38381;53.688;10.776;2023-05-07T18:29:37;2.38;;;1.67;;
52468;SDS011;38381;53.688;10.776;2023-05-07T18:34:38;2.00;;;1.80;;
52468;SDS011;38381;53.688;10.776;2023-05-07T18:39:38;3.53;;;2.38;;
52468;SDS011;38381;53.688;10.776;2023-05-07T18:44:39;3.88;;;1.70;;
52468;SDS011;38381;53.688;10.776;2023-05-07T18:49:39;3.63;;;2.13;;
52468;SDS011;38381;53.688;10.776;2023-05-07T18:54:40;2.42;;;1.92;;
52468;SDS011;38381;53.688;10.776;2023-05-07T18:59:40;4.15;;;2.03;;
52468;SDS011;38381;53.688;10.776;2023-05-07T19:04:41;2.67;;;1.80;;
52468;SDS011;38381;53.688;10.776;2023-05-07T19:09:41;3.45;;;1.50;;
52468;SDS011;38381;53.688;10.776;2023-05-07T19:14:42;3.67;;;2.00;;
52468;SDS011;38381;53.688;10.776;2023-05-07T19:19:43;2.00;;;1.57;;
52468;SDS011;38381;53.688;10.776;2023-05-07T19:24:48;1.85;;;1.65;;
52468;SDS011;38381;53.688;10.776;2023-05-07T19:29:48;3.35;;;2.05;;
52468;SDS011;38381;53.688;10.776;2023-05-07T19:34:48;2.67;;;1.75;;
52468;SDS011;38381;53.688;10.776;2023-05-07T19:39:49;4.82;;;1.85;;
52468;SDS011;38381;53.688;10.776;2023-05-07T19:44:50;2.42;;;2.00;;
52468;SDS011;38381;53.688;10.776;2023-05-07T19:49:50;1.65;;;1.50;;
52468;SDS011;38381;53.688;10.776;2023-05-07T19:54:51;2.13;;;1.67;;
52468;SDS011;38381;53.688;10.776;2023-05-07T19:59:52;3.95;;;2.15;;
52468;SDS011;38381;53.688;10.776;2023-05-07T20:04:52;3.00;;;2.17;;
52468;SDS011;38381;53.688;10.776;2023-05-07T20:09:54;2.50;;;2.20;;
52468;SDS011;38381;53.688;10.776;2023-05-07T20:14:54;2.25;;;2.00;;
52468;SDS011;38381;53.688;10.776;2023-05-07T20:19:55;2.10;;;1.90;;
52468;SDS011;38381;53.688;10.776;2023-05-07T20:24:55;2.60;;;2.00;;
52468;SDS011;38381;53.688;10.776;2023-05-07T20:29:56;3.35;;;2.50;;
52468;SDS011;38381;53.688;10.776;2023-05-07T20:34:56;3.53;;;2.80;;
52468;SDS011;38381;53.688;10.776;2023-05-07T20:39:57;2.70;;;2.40;;
52468;SDS011;38381;53.688;10.776;2023-05-07T20:44:57;3.33;;;2.30;;
52468;SDS011;38381;53.688;10.776;2023-05-07T20:49:57;2.90;;;2.10;;
52468;SDS011;38381;53.688;10.776;2023-05-07T20:54:58;2.60;;;2.22;;
52468;SDS011;38381;53.688;10.776;2023-05-07T20:59:58;2.35;;;2.15;;
52468;SDS011;38381;53.688;10.776;2023-05-07T21:04:59;2.30;;;2.10;;
52468;SDS011;38381;53.688;10.776;2023-05-07T21:09:59;3.33;;;2.10;;
52468;SDS011;38381;53.688;10.776;2023-05-07T21:14:59;3.30;;;2.13;;
52468;SDS011;38381;53.688;10.776;2023-05-07T21:20:00;2.67;;;2.15;;
52468;SDS011;38381;53.688;10.776;2023-05-07T21:25:02;2.90;;;2.60;;
52468;SDS011;38381;53.688;10.776;2023-05-07T21:30:03;2.67;;;2.28;;
52468;SDS011;38381;53.688;10.776;2023-05-07T21:35:04;2.50;;;1.92;;
52468;SDS011;38381;53.688;10.776;2023-05-07T21:40:05;2.65;;;2.13;;
52468;SDS011;38381;53.688;10.776;2023-05-07T21:45:06;3.28;;;2.63;;
52468;SDS011;38381;53.688;10.776;2023-05-07T21:50:07;4.18;;;2.40;;
52468;SDS011;38381;53.688;10.776;2023-05-07T21:55:08;2.75;;;2.55;;
52468;SDS011;38381;53.688;10.776;2023-05-07T22:00:08;5.30;;;2.97;;
52468;SDS011;38381;53.688;10.776;2023-05-07T22:05:09;3.08;;;2.42;;
52468;SDS011;38381;53.688;10.776;2023-05-07T22:10:10;2.63;;;2.42;;
52468;SDS011;38381;53.688;10.776;2023-05-07T22:15:10;2.70;;;2.50;;
52468;SDS011;38381;53.688;10.776;2023-05-07T22:20:11;4.83;;;2.63;;
52468;SDS011;38381;53.688;10.776;2023-05-07T22:25:11;3.25;;;2.40;;
52468;SDS011;38381;53.688;10.776;2023-05-07T22:30:12;3.60;;;2.75;;
52468;SDS011;38381;53.688;10.776;2023-05-07T22:35:13;2.63;;;2.40;;
52468;SDS011;38381;53.688;10.776;2023-05-07T22:40:14;2.80;;;2.47;;
52468;SDS011;38381;53.688;10.776;2023-05-07T22:45:14;3.28;;;2.55;;
52468;SDS011;38381;53.688;10.776;2023-05-07T22:50:15;5.20;;;2.28;;
52468;SDS011;38381;53.688;10.776;2023-05-07T22:55:15;3.42;;;2.50;;
52468;SDS011;38381;53.688;10.776;2023-05-07T23:00:16;2.75;;;2.55;;
52468;SDS011;38381;53.688;10.776;2023-05-07T23:05:16;5.03;;;3.05;;
52468;SDS011;38381;53.688;10.776;2023-05-07T23:10:17;2.70;;;2.47;;
52468;SDS011;38381;53.688;10.776;2023-05-07T23:15:18;3.30;;;2.97;;
52468;SDS011;38381;53.688;10.776;2023-05-07T23:20:19;3.20;;;2.80;;
52468;SDS011;38381;53.688;10.776;2023-05-07T23:25:19;2.83;;;2.35;;
52468;SDS011;38381;53.688;10.776;2023-05-07T23:30:20;3.20;;;2.67;;
52468;SDS011;38381;53.688;10.776;2023-05-07T23:35:20;2.50;;;2.20;;
52468;SDS011;38381;53.688;10.776;2023-05-07T23:40:21;4.95;;;2.53;;
52468;SDS011;38381;53.688;10.776;2023-05-07T23:45:21;3.50;;;2.80;;
52468;SDS011;38381;53.688;10.776;2023-05-07T23:50:22;3.00;;;2.55;;
52468;SDS011;38381;53.688;10.776;2023-05-07T23:55:22;4.47;;;2.75;;
